createdAt,value
2022-12-05T00:02:24.242Z,98.76
2022-12-05T00:07:26.607Z,98.92
2022-12-05T00:12:31.244Z,98.53
2022-12-05T00:17:33.032Z,98.98
2022-12-05T00:22:38.493Z,99.19
2022-12-05T00:27:40.182Z,98.86
2022-12-05T00:32:41.855Z,98.77
2022-12-05T00:37:43.513Z,98.45
2022-12-05T00:42:50.837Z,98.18
2022-12-05T00:47:53.885Z,98.06
2022-12-05T00:52:55.582Z,97.97
2022-12-05T00:57:57.261Z,98.27
2022-12-05T01:02:59.040Z,98.05
2022-12-05T01:08:01.070Z,98.29
2022-12-05T01:13:02.815Z,97.87
2022-12-05T01:18:04.600Z,97.91
2022-12-05T01:23:07.036Z,97.98
2022-12-05T01:28:09.298Z,97.99
2022-12-05T01:33:11.784Z,97.96
2022-12-05T01:38:13.817Z,97.91
2022-12-05T01:43:17.705Z,97.73
2022-12-05T01:48:25.576Z,97.93
2022-12-05T01:53:29.393Z,97.95
2022-12-05T01:58:35.776Z,97.85
2022-12-05T02:03:38.164Z,97.71
2022-12-05T02:08:41.112Z,97.75
2022-12-05T02:13:52.289Z,97.63
2022-12-05T02:19:22.073Z,97.30
2022-12-05T02:24:54.209Z,97.43
2022-12-05T02:30:07.638Z,96.82
2022-12-05T02:35:36.236Z,96.77
2022-12-05T02:40:49.487Z,96.41
2022-12-05T02:45:57.588Z,96.39
2022-12-05T02:51:01.952Z,96.03
2022-12-05T02:56:05.377Z,96.07
2022-12-05T03:01:07.526Z,95.61
2022-12-05T03:06:15.159Z,95.35
2022-12-05T03:11:17.142Z,95.72
2022-12-05T03:16:26.670Z,95.90
2022-12-05T03:21:43.632Z,95.85
2022-12-05T03:27:03.212Z,95.63
2022-12-05T03:32:10.801Z,95.81
2022-12-05T03:37:35.093Z,95.53
2022-12-05T03:42:42.569Z,95.22
2022-12-05T03:48:06.720Z,96.06
2022-12-05T03:53:21.930Z,96.87
2022-12-05T03:58:31.381Z,97.98
2022-12-05T04:03:47.192Z,98.34
2022-12-05T04:08:56.285Z,98.22
2022-12-05T04:14:11.495Z,98.34
2022-12-05T04:19:51.308Z,97.86
2022-12-05T04:25:14.521Z,97.60
2022-12-05T04:30:19.356Z,97.52
2022-12-05T04:35:26.135Z,97.10
2022-12-05T04:40:38.411Z,97.08
2022-12-05T04:45:42.716Z,97.34
2022-12-05T04:50:47.906Z,97.61
2022-12-05T04:55:52.023Z,97.86
2022-12-05T05:01:11.896Z,97.09
2022-12-05T05:06:14.475Z,97.52
2022-12-05T05:11:18.381Z,97.43
2022-12-05T05:16:29.266Z,97.59
2022-12-05T05:21:36.161Z,97.83
2022-12-05T05:26:40.955Z,97.69
2022-12-05T05:31:42.976Z,97.53
2022-12-05T05:36:44.845Z,97.56
2022-12-05T05:41:46.632Z,97.81
2022-12-05T05:46:48.303Z,97.50
2022-12-05T05:51:50.017Z,97.31
2022-12-05T05:56:51.807Z,97.24
2022-12-05T06:01:53.593Z,97.01
2022-12-05T06:06:55.227Z,97.13
2022-12-05T06:11:57.060Z,97.22
2022-12-05T06:16:58.780Z,98.25
2022-12-05T06:22:00.649Z,96.90
2022-12-05T06:27:02.337Z,95.74
2022-12-05T06:32:05.239Z,95.43
2022-12-05T06:37:07.119Z,95.61
2022-12-05T06:42:08.844Z,95.32
2022-12-05T06:47:10.449Z,95.18
2022-12-05T06:52:12.727Z,95.35
2022-12-05T06:57:14.661Z,95.21
2022-12-05T07:02:16.393Z,95.53
2022-12-05T07:07:18.144Z,95.38
2022-12-05T07:12:19.855Z,95.24
2022-12-05T07:17:22.028Z,95.34
2022-12-05T07:22:24.057Z,95.51
2022-12-05T07:27:27.961Z,95.64
2022-12-05T07:32:34.110Z,95.37
2022-12-05T07:37:36.033Z,95.53
2022-12-05T07:42:37.764Z,95.53
2022-12-05T07:47:39.581Z,95.48
2022-12-05T07:52:41.663Z,95.16
2022-12-05T07:57:43.305Z,95.18
2022-12-05T08:02:45.019Z,94.74
2022-12-05T08:07:46.863Z,94.49
2022-12-05T08:12:48.566Z,94.75
2022-12-05T08:17:50.921Z,94.33
2022-12-05T08:22:53.962Z,94.79
2022-12-05T08:27:55.658Z,94.99
2022-12-05T08:32:57.471Z,94.70
2022-12-05T08:37:59.194Z,94.38
2022-12-05T08:43:01.053Z,94.31
2022-12-05T08:48:02.953Z,94.47
2022-12-05T08:53:04.642Z,94.27
2022-12-05T08:58:06.530Z,94.46
2022-12-05T09:03:10.945Z,94.10
2022-12-05T09:08:12.721Z,94.04
2022-12-05T09:13:14.516Z,94.37
2022-12-05T09:18:16.296Z,94.27
2022-12-05T09:23:18.030Z,94.14
2022-12-05T09:28:19.806Z,93.87
2022-12-05T09:33:21.517Z,93.90
2022-12-05T09:38:23.563Z,94.16
2022-12-05T09:43:35.533Z,93.84
2022-12-05T09:48:40.906Z,93.97
2022-12-05T09:53:44.694Z,94.14
2022-12-05T09:58:51.577Z,94.11
2022-12-05T10:04:11.356Z,94.04
2022-12-05T10:09:38.838Z,94.23
2022-12-05T10:14:43.191Z,94.25
2022-12-05T10:19:49.805Z,94.39
2022-12-05T10:24:56.325Z,93.75
2022-12-05T10:30:13.573Z,94.02
2022-12-05T10:35:23.276Z,93.97
2022-12-05T10:40:40.293Z,94.18
2022-12-05T10:45:47.809Z,93.94
2022-12-05T10:50:54.797Z,94.03
2022-12-05T11:01:19.517Z,94.52
2022-12-05T11:06:30.840Z,93.99
2022-12-05T11:11:33.930Z,94.21
2022-12-05T11:16:38.489Z,94.68
2022-12-05T11:21:43.685Z,94.54
2022-12-05T11:26:45.741Z,94.63
2022-12-05T11:31:52.452Z,94.72
2022-12-05T11:36:57.925Z,94.73
2022-12-05T11:42:21.180Z,94.42
2022-12-05T11:47:44.811Z,94.54
2022-12-05T11:53:07.068Z,94.82
2022-12-05T11:58:14.527Z,94.31
2022-12-05T12:03:36.261Z,95.26
2022-12-05T12:09:16.765Z,95.83
2022-12-05T12:14:33.721Z,96.10
2022-12-05T12:19:43.099Z,96.68
2022-12-05T12:25:15.639Z,96.47
2022-12-05T12:30:28.645Z,97.03
2022-12-05T12:35:47.587Z,97.27
2022-12-05T12:40:53.669Z,97.64
2022-12-05T12:46:12.033Z,98.42
2022-12-05T12:51:14.669Z,98.10
2022-12-05T12:56:23.396Z,98.17
2022-12-05T13:01:37.445Z,99.11
2022-12-05T13:06:51.822Z,99.03
2022-12-05T13:11:56.001Z,99.28
2022-12-05T13:16:59.986Z,99.68
2022-12-05T13:22:02.097Z,99.53
2022-12-05T13:27:10.100Z,99.64
2022-12-05T13:32:29.488Z,100.00
2022-12-05T13:37:50.505Z,99.89
2022-12-05T13:43:02.202Z,100.00
2022-12-05T13:48:20.704Z,99.70
2022-12-05T13:53:24.890Z,99.84
2022-12-05T13:58:42.281Z,99.85
2022-12-05T14:03:57.186Z,99.77
2022-12-05T14:08:59.077Z,99.97
2022-12-05T14:14:04.615Z,100.00
2022-12-05T14:19:34.401Z,99.63
2022-12-05T14:25:08.651Z,99.67
2022-12-05T14:30:25.456Z,99.82
2022-12-05T14:35:40.680Z,99.89
2022-12-05T14:40:44.446Z,99.08
2022-12-05T14:45:52.773Z,98.78
2022-12-05T14:50:56.350Z,98.88
2022-12-05T14:56:01.203Z,99.32
2022-12-05T15:01:09.011Z,99.25
2022-12-05T15:06:15.510Z,99.18
2022-12-05T15:11:30.798Z,98.93
2022-12-05T15:16:35.682Z,99.01
2022-12-05T15:21:42.295Z,98.91
2022-12-05T15:26:55.170Z,98.98
2022-12-05T15:32:12.065Z,99.38
2022-12-05T15:37:19.435Z,99.92
2022-12-05T15:42:28.920Z,99.93
2022-12-05T15:47:31.926Z,99.99
2022-12-05T15:52:58.849Z,99.96
2022-12-05T15:58:13.370Z,99.85
2022-12-05T16:03:24.257Z,99.67
2022-12-05T16:08:30.108Z,99.83
2022-12-05T16:13:31.871Z,99.83
2022-12-05T16:18:33.652Z,99.87
2022-12-05T16:23:37.414Z,100.00
2022-12-05T16:28:39.569Z,99.42
2022-12-05T16:33:43.679Z,98.58
2022-12-05T16:38:46.851Z,98.28
2022-12-05T16:43:49.126Z,98.63
2022-12-05T16:49:20.431Z,98.33
2022-12-05T16:54:22.168Z,98.72
2022-12-05T16:59:31.877Z,98.87
2022-12-05T17:04:33.739Z,98.81
2022-12-05T17:09:35.752Z,99.41
2022-12-05T17:14:37.727Z,99.34
2022-12-05T17:19:39.398Z,98.66
2022-12-05T17:24:41.610Z,98.25
2022-12-05T17:29:43.340Z,97.73
2022-12-05T17:34:45.450Z,97.72
2022-12-05T17:39:47.351Z,97.69
2022-12-05T17:44:49.000Z,96.88
2022-12-05T17:49:50.942Z,97.34
2022-12-05T17:54:52.665Z,98.01
2022-12-05T17:59:54.344Z,98.62
2022-12-05T18:04:56.426Z,98.76
2022-12-05T18:09:58.495Z,98.76
2022-12-05T18:15:00.583Z,98.66
2022-12-05T18:20:02.584Z,98.37
2022-12-05T18:25:05.283Z,98.07
2022-12-05T18:30:08.272Z,98.18
2022-12-05T18:35:13.011Z,98.44
2022-12-05T18:40:14.986Z,97.91
2022-12-05T18:45:16.673Z,97.88
2022-12-05T18:50:18.532Z,97.58
2022-12-05T18:55:31.050Z,97.10
2022-12-05T19:00:42.102Z,97.75
2022-12-05T19:05:43.912Z,97.92
2022-12-05T19:10:45.814Z,97.67
2022-12-05T19:15:47.738Z,97.63
2022-12-05T19:20:50.940Z,97.63
2022-12-05T19:25:59.912Z,97.51
2022-12-05T19:31:04.893Z,97.41
2022-12-05T19:36:12.441Z,97.13
2022-12-05T19:41:17.119Z,96.94
2022-12-05T19:46:21.879Z,97.45
2022-12-05T19:51:24.671Z,97.09
2022-12-05T19:56:27.700Z,97.24
2022-12-05T20:01:34.797Z,96.93
2022-12-05T20:06:39.771Z,97.17
2022-12-05T20:11:43.842Z,96.73
2022-12-05T20:16:45.777Z,96.73
2022-12-05T20:21:47.588Z,96.65
2022-12-05T20:26:49.592Z,96.74
2022-12-05T20:31:53.862Z,96.28
2022-12-05T20:36:55.702Z,96.65
2022-12-05T20:41:57.736Z,96.50
2022-12-05T20:46:59.585Z,96.26
2022-12-05T20:52:01.338Z,96.20
2022-12-05T20:57:03.131Z,96.50
2022-12-05T21:02:05.227Z,96.06
2022-12-05T21:07:07.193Z,96.19
2022-12-05T21:12:08.919Z,96.03
2022-12-05T21:17:13.670Z,96.02
2022-12-05T21:22:15.562Z,95.49
2022-12-05T21:27:17.251Z,95.67
2022-12-05T21:32:18.930Z,95.48
2022-12-05T21:37:20.826Z,95.52
2022-12-05T21:42:22.613Z,95.25
2022-12-05T21:47:24.404Z,95.38
2022-12-05T21:52:26.223Z,95.32
2022-12-05T21:57:29.378Z,95.13
2022-12-05T22:02:31.204Z,95.06
2022-12-05T22:07:32.994Z,95.03
2022-12-05T22:12:34.713Z,95.18
2022-12-05T22:17:36.421Z,95.10
2022-12-05T22:22:38.155Z,94.88
2022-12-05T22:27:39.935Z,94.64
2022-12-05T22:32:41.825Z,94.59
2022-12-05T22:37:43.671Z,94.70
2022-12-05T22:42:45.340Z,94.64
2022-12-05T22:47:47.042Z,94.24
2022-12-05T22:52:48.827Z,94.41
2022-12-05T22:57:50.576Z,94.57
2022-12-05T23:02:52.942Z,94.31
2022-12-05T23:07:54.835Z,93.97
2022-12-05T23:12:56.651Z,94.22
2022-12-05T23:17:58.875Z,94.29
2022-12-05T23:23:00.605Z,94.11
2022-12-05T23:28:02.544Z,94.07
2022-12-05T23:33:04.436Z,93.76
2022-12-05T23:38:06.164Z,93.56
2022-12-05T23:43:07.909Z,93.58
2022-12-05T23:48:09.756Z,94.38
2022-12-05T23:53:12.439Z,94.65
2022-12-05T23:58:14.186Z,94.77
